Time,TemperatureF,DewpointF,PressureIn,WindDirection,WindDirectionDegrees,WindSpeedMPH,WindSpeedGustMPH,Humidity,HourlyPrecipIn,Conditions,Clouds,dailyrainin,SoftwareType,DateUTC
2013-03-19 00:04:00,25.0,-99.9,-100.00,North,-999,-999.0,-999.0,-999,0.01,,,0.01,,2013-03-19 04:04:00,
2013-03-19 00:23:00,25.0,-99.9,-100.00,North,-999,-999.0,-999.0,-999,0.01,,,0.01,,2013-03-19 04:23:00,
2013-03-19 00:30:00,25.0,-99.9,-100.00,North,-999,-999.0,-999.0,-999,0.02,,,0.03,,2013-03-19 04:30:00,
2013-03-19 01:02:00,25.0,-99.9,-100.00,North,-999,-999.0,-999.0,-999,0.02,,,0.03,,2013-03-19 05:02:00,
2013-03-19 01:12:00,25.0,-99.9,-100.00,North,-999,-999.0,-999.0,-999,0.02,,,0.03,,2013-03-19 05:12:00,
2013-03-19 01:22:00,25.0,-99.9,-100.00,North,-999,-999.0,-999.0,-999,0.02,,,0.03,,2013-03-19 05:22:00,
2013-03-19 01:30:00,25.0,-99.9,-100.00,North,-999,-999.0,-999.0,-999,0.01,,,0.04,,2013-03-19 05:30:00,
2013-03-19 01:52:00,25.0,-99.9,-100.00,North,-999,-999.0,-999.0,-999,0.01,,,0.04,,2013-03-19 05:52:00,
2013-03-19 02:03:00,25.0,-99.9,-100.00,North,-999,-999.0,-999.0,-999,0.01,,,0.04,,2013-03-19 06:03:00,
2013-03-19 02:12:00,25.0,-99.9,-100.00,North,-999,-999.0,-999.0,-999,0.01,,,0.04,,2013-03-19 06:12:00,
2013-03-19 02:22:00,25.0,-99.9,-100.00,North,-999,-999.0,-999.0,-999,0.01,,,0.04,,2013-03-19 06:22:00,
2013-03-19 02:30:00,25.0,-99.9,-100.00,North,-999,-999.0,-999.0,-999,0.00,,,0.04,,2013-03-19 06:30:00,
2013-03-19 03:03:00,25.0,-99.9,-100.00,North,-999,-999.0,-999.0,-999,0.00,,,0.04,,2013-03-19 07:03:00,
2013-03-19 03:12:00,25.0,-99.9,-100.00,North,-999,-999.0,-999.0,-999,0.00,,,0.04,,2013-03-19 07:12:00,
2013-03-19 03:22:00,25.0,-99.9,-100.00,North,-999,-999.0,-999.0,-999,0.00,,,0.04,,2013-03-19 07:22:00,
2013-03-19 03:30:00,25.0,-99.9,-100.00,North,-999,-999.0,-999.0,-999,0.01,,,0.05,,2013-03-19 07:30:00,
2013-03-19 03:53:00,25.0,-99.9,-100.00,North,-999,-999.0,-999.0,-999,0.01,,,0.05,,2013-03-19 07:53:00,
2013-03-19 04:03:00,25.0,-99.9,-100.00,North,-999,-999.0,-999.0,-999,0.01,,,0.05,,2013-03-19 08:03:00,
2013-03-19 04:13:00,25.0,-99.9,-100.00,North,-999,-999.0,-999.0,-999,0.01,,,0.05,,2013-03-19 08:13:00,
2013-03-19 04:22:00,25.0,-99.9,-100.00,North,-999,-999.0,-999.0,-999,0.01,,,0.05,,2013-03-19 08:22:00,
2013-03-19 05:03:00,25.0,-99.9,-100.00,North,-999,-999.0,-999.0,-999,0.01,,,0.06,,2013-03-19 09:03:00,
2013-03-19 05:13:00,25.0,-99.9,-100.00,North,-999,-999.0,-999.0,-999,0.01,,,0.07,,2013-03-19 09:13:00,
2013-03-19 05:23:00,25.0,-99.9,-100.00,North,-999,-999.0,-999.0,-999,0.01,,,0.07,,2013-03-19 09:23:00,
2013-03-19 05:30:00,25.0,-99.9,-100.00,North,-999,-999.0,-999.0,-999,0.01,,,0.07,,2013-03-19 09:30:00,
2013-03-19 05:33:00,25.0,-99.9,-100.00,North,-999,-999.0,-999.0,-999,0.01,,,0.07,,2013-03-19 09:33:00,
2013-03-19 05:43:00,25.0,-99.9,-100.00,North,-999,-999.0,-999.0,-999,0.01,,,0.07,,2013-03-19 09:43:00,
2013-03-19 05:54:00,25.0,-99.9,-100.00,North,-999,-999.0,-999.0,-999,0.01,,,0.07,,2013-03-19 09:54:00,
2013-03-19 06:04:00,25.0,-99.9,-100.00,North,-999,-999.0,-999.0,-999,0.01,,,0.07,,2013-03-19 10:04:00,
2013-03-19 06:13:00,25.0,-99.9,-100.00,North,-999,-999.0,-999.0,-999,0.01,,,0.07,,2013-03-19 10:13:00,
2013-03-19 06:23:00,25.0,-99.9,-100.00,North,-999,-999.0,-999.0,-999,0.01,,,0.07,,2013-03-19 10:23:00,
2013-03-19 06:30:00,26.0,-99.9,-100.00,North,-999,-999.0,-999.0,-999,0.01,,,0.08,,2013-03-19 10:30:00,
2013-03-19 07:03:00,26.0,-99.9,-100.00,North,-999,-999.0,-999.0,-999,0.01,,,0.08,,2013-03-19 11:03:00,
2013-03-19 07:12:00,26.0,-99.9,-100.00,North,-999,-999.0,-999.0,-999,0.01,,,0.08,,2013-03-19 11:12:00,
2013-03-19 07:23:00,26.0,-99.9,-100.00,North,-999,-999.0,-999.0,-999,0.01,,,0.08,,2013-03-19 11:23:00,
2013-03-19 07:30:00,27.0,-99.9,-100.00,North,-999,-999.0,-999.0,-999,0.00,,,0.08,,2013-03-19 11:30:00,
2013-03-19 07:53:00,27.0,-99.9,-100.00,North,-999,-999.0,-999.0,-999,0.00,,,0.08,,2013-03-19 11:53:00,
2013-03-19 08:03:00,27.0,-99.9,-100.00,North,-999,-999.0,-999.0,-999,0.00,,,0.08,,2013-03-19 12:03:00,
2013-03-19 08:12:00,27.0,-99.9,-100.00,North,-999,-999.0,-999.0,-999,0.00,,,0.08,,2013-03-19 12:12:00,
2013-03-19 08:23:00,27.0,-99.9,-100.00,North,-999,-999.0,-999.0,-999,0.00,,,0.08,,2013-03-19 12:23:00,
2013-03-19 08:30:00,27.0,-99.9,-100.00,North,-999,-999.0,-999.0,-999,0.01,,,0.09,,2013-03-19 12:30:00,
2013-03-19 08:52:00,27.0,-99.9,-100.00,North,-999,-999.0,-999.0,-999,0.01,,,0.09,,2013-03-19 12:52:00,
2013-03-19 09:03:00,27.0,-99.9,-100.00,North,-999,-999.0,-999.0,-999,0.01,,,0.09,,2013-03-19 13:03:00,
2013-03-19 09:13:00,27.0,-99.9,-100.00,North,-999,-999.0,-999.0,-999,0.01,,,0.09,,2013-03-19 13:13:00,
2013-03-19 09:23:00,27.0,-99.9,-100.00,North,-999,-999.0,-999.0,-999,0.01,,,0.09,,2013-03-19 13:23:00,
2013-03-19 09:30:00,28.0,-99.9,-100.00,North,-999,-999.0,-999.0,-999,0.05,,,0.14,,2013-03-19 13:30:00,
2013-03-19 09:53:00,28.0,-99.9,-100.00,North,-999,-999.0,-999.0,-999,0.05,,,0.14,,2013-03-19 13:53:00,
2013-03-19 10:03:00,28.0,-99.9,-100.00,North,-999,-999.0,-999.0,-999,0.05,,,0.14,,2013-03-19 14:03:00,
2013-03-19 10:13:00,28.0,-99.9,-100.00,North,-999,-999.0,-999.0,-999,0.05,,,0.14,,2013-03-19 14:13:00,
2013-03-19 10:23:00,28.0,-99.9,-100.00,North,-999,-999.0,-999.0,-999,0.05,,,0.14,,2013-03-19 14:23:00,
2013-03-19 11:13:00,29.0,-99.9,-100.00,North,-999,-999.0,-999.0,-999,0.01,,,0.16,,2013-03-19 15:13:00,
2013-03-19 11:23:00,29.0,-99.9,-100.00,North,-999,-999.0,-999.0,-999,0.01,,,0.16,,2013-03-19 15:23:00,
2013-03-19 11:30:00,30.0,-99.9,-100.00,North,-999,-999.0,-999.0,-999,0.05,,,0.21,,2013-03-19 15:30:00,
2013-03-19 11:34:00,29.0,-99.9,-100.00,North,-999,-999.0,-999.0,-999,0.01,,,0.16,,2013-03-19 15:34:00,
2013-03-19 11:44:00,29.0,-99.9,-100.00,North,-999,-999.0,-999.0,-999,0.01,,,0.16,,2013-03-19 15:44:00,
2013-03-19 12:04:00,30.0,-99.9,-100.00,North,-999,-999.0,-999.0,-999,0.05,,,0.21,,2013-03-19 16:04:00,
2013-03-19 12:13:00,30.0,-99.9,-100.00,North,-999,-999.0,-999.0,-999,0.05,,,0.21,,2013-03-19 16:13:00,
2013-03-19 12:24:00,30.0,-99.9,-100.00,North,-999,-999.0,-999.0,-999,0.05,,,0.21,,2013-03-19 16:24:00,
2013-03-19 12:30:00,30.0,-99.9,-100.00,North,-999,-999.0,-999.0,-999,0.08,,,0.29,,2013-03-19 16:30:00,
2013-03-19 13:03:00,30.0,-99.9,-100.00,North,-999,-999.0,-999.0,-999,0.08,,,0.29,,2013-03-19 17:03:00,
2013-03-19 13:14:00,30.0,-99.9,-100.00,North,-999,-999.0,-999.0,-999,0.08,,,0.29,,2013-03-19 17:14:00,
2013-03-19 13:24:00,30.0,-99.9,-100.00,North,-999,-999.0,-999.0,-999,0.08,,,0.29,,2013-03-19 17:24:00,
2013-03-19 13:30:00,29.0,-99.9,-100.00,North,-999,-999.0,-999.0,-999,0.06,,,0.35,,2013-03-19 17:30:00,
2013-03-19 13:54:00,29.0,-99.9,-100.00,North,-999,-999.0,-999.0,-999,0.06,,,0.35,,2013-03-19 17:54:00,
2013-03-19 14:04:00,29.0,-99.9,-100.00,North,-999,-999.0,-999.0,-999,0.06,,,0.35,,2013-03-19 18:04:00,
2013-03-19 14:14:00,29.0,-99.9,-100.00,North,-999,-999.0,-999.0,-999,0.06,,,0.35,,2013-03-19 18:14:00,
2013-03-19 14:23:00,29.0,-99.9,-100.00,North,-999,-999.0,-999.0,-999,0.06,,,0.35,,2013-03-19 18:23:00,
2013-03-19 14:30:00,29.0,-99.9,-100.00,North,-999,-999.0,-999.0,-999,0.04,,,0.39,,2013-03-19 18:30:00,
2013-03-19 14:54:00,29.0,-99.9,-100.00,North,-999,-999.0,-999.0,-999,0.04,,,0.39,,2013-03-19 18:54:00,
2013-03-19 15:23:00,29.0,-99.9,-100.00,North,-999,-999.0,-999.0,-999,0.04,,,0.39,,2013-03-19 19:23:00,
2013-03-19 15:30:00,29.0,-99.9,-100.00,North,-999,-999.0,-999.0,-999,0.03,,,0.42,,2013-03-19 19:30:00,
2013-03-19 16:03:00,29.0,-99.9,-100.00,North,-999,-999.0,-999.0,-999,0.03,,,0.42,,2013-03-19 20:03:00,
2013-03-19 16:12:00,29.0,-99.9,-100.00,North,-999,-999.0,-999.0,-999,0.03,,,0.42,,2013-03-19 20:12:00,
2013-03-19 16:23:00,29.0,-99.9,-100.00,North,-999,-999.0,-999.0,-999,0.03,,,0.42,,2013-03-19 20:23:00,
2013-03-19 16:30:00,29.0,-99.9,-100.00,North,-999,-999.0,-999.0,-999,0.06,,,0.48,,2013-03-19 20:30:00,
2013-03-19 16:53:00,29.0,-99.9,-100.00,North,-999,-999.0,-999.0,-999,0.06,,,0.48,,2013-03-19 20:53:00,
2013-03-19 17:03:00,29.0,-99.9,-100.00,North,-999,-999.0,-999.0,-999,0.06,,,0.48,,2013-03-19 21:03:00,
2013-03-19 17:12:00,29.0,-99.9,-100.00,North,-999,-999.0,-999.0,-999,0.06,,,0.48,,2013-03-19 21:12:00,
2013-03-19 17:23:00,29.0,-99.9,-100.00,North,-999,-999.0,-999.0,-999,0.06,,,0.48,,2013-03-19 21:23:00,
2013-03-19 17:30:00,29.0,-99.9,-100.00,North,-999,-999.0,-999.0,-999,0.05,,,0.53,,2013-03-19 21:30:00,
2013-03-19 18:04:00,29.0,-99.9,-100.00,North,-999,-999.0,-999.0,-999,0.05,,,0.53,,2013-03-19 22:04:00,
2013-03-19 18:13:00,29.0,-99.9,-100.00,North,-999,-999.0,-999.0,-999,0.05,,,0.53,,2013-03-19 22:13:00,
2013-03-19 18:24:00,29.0,-99.9,-100.00,North,-999,-999.0,-999.0,-999,0.05,,,0.53,,2013-03-19 22:24:00,
2013-03-19 18:30:00,28.0,-99.9,-100.00,North,-999,-999.0,-999.0,-999,0.02,,,0.55,,2013-03-19 22:30:00,
2013-03-19 19:03:00,28.0,-99.9,-100.00,North,-999,-999.0,-999.0,-999,0.02,,,0.55,,2013-03-19 23:03:00,
2013-03-19 19:13:00,28.0,-99.9,-100.00,North,-999,-999.0,-999.0,-999,0.02,,,0.55,,2013-03-19 23:13:00,
2013-03-19 19:23:00,28.0,-99.9,-100.00,North,-999,-999.0,-999.0,-999,0.02,,,0.55,,2013-03-19 23:23:00,
2013-03-19 19:30:00,27.0,-99.9,-100.00,North,-999,-999.0,-999.0,-999,0.02,,,0.57,,2013-03-19 23:30:00,
2013-03-19 19:53:00,27.0,-99.9,-100.00,North,-999,-999.0,-999.0,-999,0.02,,,0.57,,2013-03-19 23:53:00,
2013-03-19 20:13:00,27.0,-99.9,-100.00,North,-999,-999.0,-999.0,-999,0.02,,,0.57,,2013-03-20 00:13:00,
2013-03-19 20:22:00,27.0,-99.9,-100.00,North,-999,-999.0,-999.0,-999,0.02,,,0.57,,2013-03-20 00:22:00,
2013-03-19 20:30:00,27.0,-99.9,-100.00,North,-999,-999.0,-999.0,-999,0.01,,,0.58,,2013-03-20 00:30:00,
2013-03-19 21:03:00,27.0,-99.9,-100.00,North,-999,-999.0,-999.0,-999,0.01,,,0.58,,2013-03-20 01:03:00,
2013-03-19 21:12:00,27.0,-99.9,-100.00,North,-999,-999.0,-999.0,-999,0.01,,,0.58,,2013-03-20 01:12:00,
2013-03-19 21:23:00,27.0,-99.9,-100.00,North,-999,-999.0,-999.0,-999,0.01,,,0.58,,2013-03-20 01:23:00,
2013-03-19 21:30:00,25.0,-99.9,-100.00,North,-999,-999.0,-999.0,-999,0.00,,,0.58,,2013-03-20 01:30:00,
2013-03-19 22:03:00,25.0,-99.9,-100.00,North,-999,-999.0,-999.0,-999,0.00,,,0.58,,2013-03-20 02:03:00,
2013-03-19 22:12:00,25.0,-99.9,-100.00,North,-999,-999.0,-999.0,-999,0.00,,,0.58,,2013-03-20 02:12:00,
2013-03-19 22:23:00,25.0,-99.9,-100.00,North,-999,-999.0,-999.0,-999,0.00,,,0.58,,2013-03-20 02:23:00,
2013-03-19 23:02:00,24.0,-99.9,-100.00,North,-999,-999.0,-999.0,-999,0.00,,,0.58,,2013-03-20 03:02:00,
2013-03-19 23:12:00,24.0,-99.9,-100.00,North,-999,-999.0,-999.0,-999,0.00,,,0.58,,2013-03-20 03:12:00,
2013-03-19 23:23:00,24.0,-99.9,-100.00,North,-999,-999.0,-999.0,-999,0.00,,,0.58,,2013-03-20 03:23:00,
2013-03-19 23:30:00,23.0,-99.9,-100.00,North,-999,-999.0,-999.0,-999,0.00,,,0.57,,2013-03-20 03:30:00,
2013-03-19 23:35:00,24.0,-99.9,-100.00,North,-999,-999.0,-999.0,-999,0.00,,,0.58,,2013-03-20 03:35:00,
2013-03-19 23:43:00,24.0,-99.9,-100.00,North,-999,-999.0,-999.0,-999,0.00,,,0.58,,2013-03-20 03:43:00,
2013-03-19 23:54:00,23.0,-99.9,-100.00,North,-999,-999.0,-999.0,-999,0.00,,,0.57,,2013-03-20 03:54:00,